Time;durP1;ratioP1;P1;durP2;ratioP2;P2;SDS_P1;SDS_P2;PMS_P1;PMS_P2;Temp;Humidity;BMP_temperature;BMP_pressure;BME280_temperature;BME280_humidity;BME280_pressure;Samples;Min_cycle;Max_cycle;Signal;HPM_P1;HPM_P2
2022/09/10 00:01:15;;;;;;;6.20;3.70;;;15.50;99.90;;;;;;5011512;28;20030;-47
2022/09/10 00:03:42;;;;;;;9.18;3.92;;;15.40;99.90;;;;;;5011769;28;20121;-48
2022/09/10 00:06:09;;;;;;;6.45;3.67;;;15.30;99.90;;;;;;5011572;28;20030;-46
2022/09/10 00:08:35;;;;;;;7.28;3.33;;;15.40;99.90;;;;;;5011575;28;20082;-52
2022/09/10 00:11:07;;;;;;;6.43;3.25;;;15.30;99.90;;;;;;5011535;28;20026;-48
2022/09/10 00:13:34;;;;;;;5.10;2.90;;;15.20;99.90;;;;;;5011528;28;20084;-46
2022/09/10 00:16:02;;;;;;;8.82;3.08;;;15.10;99.90;;;;;;5011322;28;20042;-45
2022/09/10 00:18:28;;;;;;;5.17;3.27;;;15.10;99.90;;;;;;5011666;28;20032;-43
2022/09/10 00:20:55;;;;;;;8.77;3.67;;;15.00;99.90;;;;;;5011411;28;20025;-53
2022/09/10 00:23:24;;;;;;;5.15;2.97;;;15.00;99.90;;;;;;5011354;28;20029;-47
2022/09/10 00:25:52;;;;;;;10.02;4.18;;;14.90;99.90;;;;;;5011301;28;20502;-45
2022/09/10 00:28:19;;;;;;;5.35;3.70;;;14.90;99.90;;;;;;5011066;28;20412;-50
2022/09/10 00:30:47;;;;;;;6.93;3.72;;;14.80;99.90;;;;;;5011027;28;20061;-46
2022/09/10 00:33:15;;;;;;;5.75;3.78;;;14.70;99.90;;;;;;5011359;28;20088;-50
2022/09/10 00:35:41;;;;;;;6.10;3.50;;;14.70;99.90;;;;;;5011239;28;20120;-47
2022/09/10 00:38:08;;;;;;;6.05;3.95;;;14.70;99.90;;;;;;5010491;28;20022;-47
2022/09/10 00:40:34;;;;;;;7.97;3.90;;;14.70;99.90;;;;;;5011133;28;20030;-54
2022/09/10 00:42:59;;;;;;;6.80;3.90;;;14.70;99.90;;;;;;5011004;28;20385;-46
2022/09/10 00:45:32;;;;;;;6.72;3.90;;;14.70;99.90;;;;;;5011278;28;20024;-57
2022/09/10 00:48:27;;;;;;;7.47;3.75;;;14.70;99.90;;;;;;5011108;28;20022;-53
2022/09/10 00:50:53;;;;;;;6.07;3.80;;;14.60;99.90;;;;;;4992206;28;20050;-48
2022/09/10 00:53:23;;;;;;;7.18;4.15;;;14.60;99.90;;;;;;5002393;28;20393;-50
2022/09/10 00:55:52;;;;;;;9.38;4.38;;;14.60;99.90;;;;;;5013208;28;20030;-56
2022/09/10 00:58:19;;;;;;;8.20;4.20;;;14.60;99.90;;;;;;5014918;28;20105;-48
2022/09/10 01:00:45;;;;;;;5.60;3.70;;;14.60;99.90;;;;;;5014555;28;20068;-58
2022/09/10 01:03:14;;;;;;;7.57;4.20;;;14.60;99.90;;;;;;5014929;28;20026;-48
2022/09/10 01:05:43;;;;;;;6.63;3.70;;;14.50;99.90;;;;;;5014856;28;20114;-52
2022/09/10 01:08:14;;;;;;;6.57;3.95;;;14.60;99.90;;;;;;5014721;28;20046;-54
2022/09/10 01:11:03;;;;;;;8.45;4.35;;;14.50;99.90;;;;;;5014866;28;20038;-47
2022/09/10 01:13:38;;;;;;;8.05;3.90;;;14.50;99.90;;;;;;5014755;28;20481;-50
2022/09/10 01:16:04;;;;;;;8.43;4.07;;;14.50;99.90;;;;;;5014474;28;20118;-47
2022/09/10 01:18:46;;;;;;;8.73;3.95;;;14.40;99.90;;;;;;5014598;28;20469;-47
2022/09/10 01:21:35;;;;;;;9.50;5.03;;;14.40;99.90;;;;;;5014611;28;20080;-50
2022/09/10 01:24:37;;;;;;;7.15;4.30;;;14.40;99.90;;;;;;5014698;28;20030;-45
2022/09/10 01:27:15;;;;;;;5.15;3.53;;;14.40;99.90;;;;;;5003450;28;20444;-51
2022/09/10 01:29:52;;;;;;;7.75;3.60;;;14.40;99.90;;;;;;5014328;28;20010;-47
2022/09/10 01:32:30;;;;;;;6.18;4.07;;;14.30;99.90;;;;;;5014585;28;20037;-53
2022/09/10 01:35:09;;;;;;;6.63;3.92;;;14.30;99.90;;;;;;5014648;28;20026;-53
2022/09/10 01:37:37;;;;;;;8.85;4.57;;;14.30;99.90;;;;;;5014627;28;20033;-47
2022/09/10 01:40:04;;;;;;;6.40;4.30;;;14.30;99.90;;;;;;5014141;28;20014;-50
2022/09/10 01:42:31;;;;;;;7.20;3.95;;;14.30;99.90;;;;;;5014331;28;20030;-51
2022/09/10 01:44:57;;;;;;;6.18;4.20;;;14.30;99.90;;;;;;5014248;28;20034;-52
2022/09/10 01:47:50;;;;;;;7.47;4.43;;;14.20;99.90;;;;;;5014221;28;20105;-54
2022/09/10 01:50:56;;;;;;;7.60;5.20;;;14.20;99.90;;;;;;5013939;28;20021;-44
2022/09/10 01:53:39;;;;;;;6.88;4.65;;;14.20;99.90;;;;;;5005547;28;20045;-52
2022/09/10 01:56:34;;;;;;;7.97;5.40;;;14.20;99.90;;;;;;5013513;28;20128;-49
2022/09/10 01:59:10;;;;;;;6.68;4.45;;;14.20;99.90;;;;;;5013591;28;20028;-51
2022/09/10 02:01:43;;;;;;;6.60;4.40;;;14.10;99.90;;;;;;5013684;28;20492;-52
2022/09/10 02:04:13;;;;;;;6.55;4.53;;;14.10;99.90;;;;;;5013538;28;20026;-47
2022/09/10 02:06:44;;;;;;;6.22;4.18;;;14.00;99.90;;;;;;5013137;28;20024;-52
2022/09/10 02:09:12;;;;;;;8.30;4.47;;;14.00;99.90;;;;;;5013193;28;20042;-44
2022/09/10 02:11:52;;;;;;;10.15;4.53;;;13.90;99.90;;;;;;5013448;28;20022;-48
2022/09/10 02:14:20;;;;;;;7.32;4.30;;;13.90;99.90;;;;;;5013451;28;20042;-44
2022/09/10 02:16:57;;;;;;;6.53;4.10;;;13.90;99.90;;;;;;5013449;28;20272;-44
2022/09/10 02:19:24;;;;;;;10.27;4.68;;;13.80;99.90;;;;;;5013384;28;20033;-54
2022/09/10 02:21:50;;;;;;;6.18;4.28;;;13.80;99.90;;;;;;5013399;28;20041;-48
2022/09/10 02:24:16;;;;;;;7.18;4.60;;;13.80;99.90;;;;;;5013417;28;20374;-50
2022/09/10 02:26:43;;;;;;;7.60;4.65;;;13.80;99.90;;;;;;5009025;28;20018;-49
2022/09/10 02:29:12;;;;;;;6.82;4.47;;;13.80;99.90;;;;;;5009486;28;20034;-50
2022/09/10 02:31:38;;;;;;;6.82;4.85;;;13.80;99.90;;;;;;5009798;28;20053;-46
2022/09/10 02:34:04;;;;;;;10.32;5.05;;;13.70;99.90;;;;;;5013063;28;20034;-48
2022/09/10 02:36:30;;;;;;;8.18;5.10;;;13.70;99.90;;;;;;5012554;28;20083;-46
2022/09/10 02:38:57;;;;;;;6.63;4.90;;;13.70;99.90;;;;;;5013020;28;20030;-50
2022/09/10 02:41:24;;;;;;;8.48;4.80;;;13.70;99.90;;;;;;5005806;28;20465;-49
2022/09/10 02:43:51;;;;;;;9.02;5.18;;;13.70;99.90;;;;;;5003109;28;20442;-50
2022/09/10 02:46:17;;;;;;;8.45;5.50;;;13.70;99.90;;;;;;5005377;28;20034;-49
2022/09/10 02:48:43;;;;;;;8.23;5.50;;;13.70;99.90;;;;;;5002372;28;20034;-44
2022/09/10 02:51:09;;;;;;;8.25;5.68;;;13.60;99.90;;;;;;4993530;28;20033;-47
2022/09/10 02:53:35;;;;;;;9.52;5.88;;;13.60;99.90;;;;;;4993084;28;20117;-46
2022/09/10 02:56:01;;;;;;;9.95;5.53;;;13.60;99.90;;;;;;5003441;28;20130;-53
2022/09/10 02:58:30;;;;;;;6.78;5.38;;;13.60;99.90;;;;;;4992644;28;20026;-46
2022/09/10 03:01:08;;;;;;;9.35;4.85;;;13.60;99.90;;;;;;4992988;28;20034;-46
2022/09/10 03:03:35;;;;;;;9.18;5.70;;;13.50;99.90;;;;;;5015114;28;20017;-45
2022/09/10 03:06:00;;;;;;;7.97;5.43;;;13.50;99.90;;;;;;5012432;28;20018;-43
2022/09/10 03:08:26;;;;;;;8.15;5.55;;;13.50;99.90;;;;;;5012232;28;20128;-46
2022/09/10 03:10:52;;;;;;;7.20;5.53;;;13.50;99.90;;;;;;5012591;28;20032;-49
2022/09/10 03:13:18;;;;;;;10.60;6.00;;;13.50;99.90;;;;;;5012579;28;20068;-50
2022/09/10 03:15:43;;;;;;;8.00;5.20;;;13.50;99.90;;;;;;5012299;28;20037;-43
2022/09/10 03:18:09;;;;;;;7.93;5.90;;;13.50;99.90;;;;;;5011864;28;20430;-48
2022/09/10 03:20:35;;;;;;;7.70;5.75;;;13.40;99.90;;;;;;5012347;28;20389;-46
2022/09/10 03:23:02;;;;;;;10.85;6.07;;;13.50;99.90;;;;;;5012429;28;20053;-52
2022/09/10 03:25:28;;;;;;;17.02;5.82;;;13.50;99.90;;;;;;5012050;28;20117;-46
2022/09/10 03:27:54;;;;;;;8.15;5.75;;;13.50;99.90;;;;;;5012468;28;20446;-43
2022/09/10 03:30:20;;;;;;;8.55;5.63;;;13.40;99.90;;;;;;5012135;28;20026;-43
2022/09/10 03:32:46;;;;;;;9.52;5.70;;;13.40;99.90;;;;;;5012494;28;20226;-48
2022/09/10 03:35:12;;;;;;;7.03;5.68;;;13.40;99.90;;;;;;5006418;28;20061;-43
2022/09/10 03:37:39;;;;;;;8.15;5.68;;;13.40;99.90;;;;;;5012146;28;20422;-50
2022/09/10 03:40:06;;;;;;;7.47;5.40;;;13.40;99.90;;;;;;5001605;28;20049;-57
2022/09/10 03:42:32;;;;;;;9.25;6.30;;;13.40;99.90;;;;;;5011927;28;20401;-53
2022/09/10 03:44:57;;;;;;;9.85;6.03;;;13.30;99.90;;;;;;5011828;28;20030;-43
2022/09/10 03:47:23;;;;;;;8.40;5.50;;;13.30;99.90;;;;;;5011909;28;20152;-43
2022/09/10 03:49:49;;;;;;;8.35;5.47;;;13.30;99.90;;;;;;5011890;28;20165;-43
2022/09/10 03:52:16;;;;;;;10.20;6.47;;;13.30;99.90;;;;;;5011886;28;20018;-47
2022/09/10 03:54:41;;;;;;;8.38;6.30;;;13.30;99.90;;;;;;5011375;28;20488;-44
2022/09/10 03:57:07;;;;;;;10.10;6.30;;;13.20;99.90;;;;;;5011928;28;20042;-55
2022/09/10 03:59:33;;;;;;;10.15;6.90;;;13.20;99.90;;;;;;5011571;28;20105;-57
2022/09/10 04:01:59;;;;;;;11.30;7.18;;;13.20;99.90;;;;;;5011760;28;20033;-51
2022/09/10 04:04:25;;;;;;;9.65;6.65;;;13.30;99.90;;;;;;5011639;28;20084;-49
2022/09/10 04:06:52;;;;;;;11.70;7.07;;;13.30;99.90;;;;;;5011403;28;20034;-50
2022/09/10 04:09:18;;;;;;;10.35;6.43;;;13.30;99.90;;;;;;5011426;28;20052;-46
2022/09/10 04:11:44;;;;;;;12.10;7.22;;;13.30;99.90;;;;;;5011370;28;20035;-48
2022/09/10 04:14:09;;;;;;;8.82;6.70;;;13.30;99.90;;;;;;5011665;28;20030;-53
2022/09/10 04:16:36;;;;;;;9.60;7.10;;;13.30;99.90;;;;;;5011248;28;20396;-53
2022/09/10 04:19:01;;;;;;;9.60;6.82;;;13.30;99.90;;;;;;5011437;28;20076;-47
2022/09/10 04:21:27;;;;;;;10.95;7.60;;;13.30;99.90;;;;;;5011499;28;20037;-51
2022/09/10 04:23:54;;;;;;;10.75;7.25;;;13.20;99.90;;;;;;5011167;28;20025;-50
2022/09/10 04:26:20;;;;;;;12.60;7.47;;;13.20;99.90;;;;;;5011330;28;20035;-48
2022/09/10 04:28:45;;;;;;;14.27;7.45;;;13.20;99.90;;;;;;5011114;28;20042;-54
2022/09/10 04:31:11;;;;;;;8.90;6.80;;;13.30;99.90;;;;;;5011465;28;20025;-49
2022/09/10 04:33:38;;;;;;;12.15;7.88;;;13.20;99.90;;;;;;5011232;28;20389;-50
2022/09/10 04:36:04;;;;;;;9.30;7.10;;;13.20;99.90;;;;;;5005990;28;20097;-46
2022/09/10 04:38:31;;;;;;;11.63;7.53;;;13.20;99.90;;;;;;5011208;28;20061;-49
2022/09/10 04:41:02;;;;;;;10.50;7.25;;;13.20;99.90;;;;;;5011117;28;20123;-52
2022/09/10 04:43:28;;;;;;;11.60;7.80;;;13.20;99.90;;;;;;5011184;28;20532;-52
2022/09/10 04:45:54;;;;;;;10.70;7.00;;;13.10;99.90;;;;;;5010792;28;20026;-48
2022/09/10 04:48:21;;;;;;;10.65;7.20;;;13.10;99.90;;;;;;5011085;28;20022;-44
2022/09/10 04:50:47;;;;;;;12.25;7.20;;;13.10;99.90;;;;;;4993587;28;20030;-50
2022/09/10 04:53:13;;;;;;;12.65;7.93;;;13.10;99.90;;;;;;5010950;28;20030;-45
2022/09/10 04:55:42;;;;;;;11.68;8.50;;;13.20;99.90;;;;;;5010728;28;20042;-47
2022/09/10 04:58:08;;;;;;;12.23;8.82;;;13.20;99.90;;;;;;5010970;28;20096;-56
2022/09/10 05:00:34;;;;;;;13.27;9.73;;;13.30;99.90;;;;;;5010942;28;20030;-52
2022/09/10 05:02:59;;;;;;;16.70;10.23;;;13.30;99.90;;;;;;5010869;28;20023;-48
2022/09/10 05:05:26;;;;;;;14.95;10.80;;;13.40;99.90;;;;;;5011075;28;20106;-44
2022/09/10 05:07:52;;;;;;;15.80;11.00;;;13.50;99.90;;;;;;5010539;28;20510;-48
2022/09/10 05:10:20;;;;;;;15.45;10.32;;;13.50;99.90;;;;;;5011038;28;20018;-53
2022/09/10 05:12:47;;;;;;;16.25;10.48;;;13.60;99.90;;;;;;5011101;28;20034;-49
2022/09/10 05:15:12;;;;;;;17.17;10.13;;;13.60;99.90;;;;;;5010928;28;20046;-44
2022/09/10 05:17:38;;;;;;;15.60;10.48;;;13.70;99.90;;;;;;5007105;28;20081;-46
2022/09/10 05:20:06;;;;;;;15.80;10.23;;;13.70;99.90;;;;;;5010634;28;20026;-48
2022/09/10 05:22:33;;;;;;;13.63;10.05;;;13.70;99.90;;;;;;5004849;28;20026;-44
2022/09/10 05:24:59;;;;;;;17.02;9.05;;;13.70;99.90;;;;;;5008402;28;20049;-47
2022/09/10 05:27:24;;;;;;;11.20;8.73;;;13.60;99.90;;;;;;5006420;28;20064;-45
2022/09/10 05:29:50;;;;;;;12.55;8.13;;;13.50;99.90;;;;;;5001422;28;20038;-54
2022/09/10 05:32:17;;;;;;;12.93;8.25;;;13.40;99.90;;;;;;5003859;28;20049;-46
2022/09/10 05:34:47;;;;;;;16.33;8.45;;;13.30;99.90;;;;;;5002941;28;20037;-46
2022/09/10 05:37:17;;;;;;;;;;;13.30;99.90;;;;;;5011361;28;20040;-53
2022/09/10 05:39:43;;;;;;;10.85;7.85;;;13.20;99.90;;;;;;5010726;28;20388;-53
2022/09/10 05:42:09;;;;;;;10.43;8.05;;;13.20;99.90;;;;;;5013258;28;20022;-45
2022/09/10 05:44:34;;;;;;;10.98;7.70;;;13.20;99.90;;;;;;5009444;28;20018;-48
2022/09/10 05:47:00;;;;;;;10.63;7.25;;;13.20;99.90;;;;;;5005869;28;20041;-46
2022/09/10 05:49:26;;;;;;;13.32;8.25;;;13.20;99.90;;;;;;5001594;28;20681;-52
2022/09/10 05:51:51;;;;;;;12.77;8.50;;;13.20;99.90;;;;;;4994605;28;20027;-49
2022/09/10 05:54:17;;;;;;;15.23;8.45;;;13.30;99.90;;;;;;4994246;28;20018;-48
2022/09/10 05:56:43;;;;;;;14.15;8.45;;;13.30;99.90;;;;;;5001151;28;20185;-48
2022/09/10 05:59:09;;;;;;;11.75;8.15;;;13.30;99.90;;;;;;4996376;28;20413;-48
2022/09/10 06:01:35;;;;;;;13.77;8.70;;;13.40;99.90;;;;;;4994104;28;20031;-50
2022/09/10 06:04:02;;;;;;;11.90;8.05;;;13.40;99.90;;;;;;4993689;28;20033;-43
2022/09/10 06:06:28;;;;;;;12.38;8.05;;;13.50;99.90;;;;;;5006948;28;20409;-46
2022/09/10 06:08:54;;;;;;;15.35;8.63;;;13.50;99.90;;;;;;5003531;28;20058;-49
2022/09/10 06:11:20;;;;;;;17.08;8.45;;;13.50;99.90;;;;;;4994014;28;20022;-49
2022/09/10 06:13:46;;;;;;;12.88;8.30;;;13.50;99.90;;;;;;5000627;28;20026;-43
2022/09/10 06:16:13;;;;;;;12.10;8.73;;;13.50;99.90;;;;;;5006049;28;20748;-51
2022/09/10 06:18:39;;;;;;;12.70;8.55;;;13.50;99.90;;;;;;4996694;28;20026;-48
2022/09/10 06:21:07;;;;;;;9.93;7.88;;;13.50;99.90;;;;;;4998287;28;20033;-48
2022/09/10 06:23:35;;;;;;;11.73;7.73;;;13.60;99.90;;;;;;5003483;28;20034;-47
2022/09/10 06:26:20;;;;;;;13.80;8.40;;;13.60;99.90;;;;;;4994160;28;20033;-48
2022/09/10 06:28:48;;;;;;;13.32;8.38;;;13.70;99.90;;;;;;4991511;28;20105;-54
2022/09/10 06:31:16;;;;;;;12.80;7.82;;;13.80;99.90;;;;;;4992080;28;20474;-53
2022/09/10 06:33:47;;;;;;;11.15;7.93;;;13.80;99.90;;;;;;4991731;28;20109;-52
2022/09/10 06:36:13;;;;;;;13.65;7.70;;;13.90;99.90;;;;;;5006048;28;20511;-43
2022/09/10 06:38:39;;;;;;;11.00;8.52;;;14.00;99.90;;;;;;5011565;28;20087;-47
2022/09/10 06:41:07;;;;;;;13.55;8.45;;;14.20;99.90;;;;;;5012043;28;20026;-45
2022/09/10 06:43:40;;;;;;;15.57;9.15;;;14.30;99.90;;;;;;5012394;28;20708;-48
2022/09/10 06:46:18;;;;;;;13.20;9.13;;;14.40;99.90;;;;;;5011108;28;20065;-47
2022/09/10 06:48:44;;;;;;;11.35;8.40;;;14.60;99.90;;;;;;5011365;28;20022;-50
2022/09/10 06:51:12;;;;;;;12.73;8.75;;;14.70;99.90;;;;;;5011213;28;20084;-44
2022/09/10 06:53:40;;;;;;;10.48;8.20;;;14.80;99.90;;;;;;5010206;28;20072;-45
2022/09/10 06:56:09;;;;;;;12.00;8.90;;;14.90;99.90;;;;;;5011080;28;20060;-43
2022/09/10 06:58:35;;;;;;;11.27;8.43;;;14.90;99.90;;;;;;5011721;28;20026;-45
2022/09/10 07:01:18;;;;;;;12.98;8.50;;;15.00;99.90;;;;;;5012823;28;20025;-43
2022/09/10 07:03:45;;;;;;;13.30;8.32;;;15.20;99.90;;;;;;5001182;28;20034;-46
2022/09/10 07:06:16;;;;;;;13.50;7.82;;;15.50;99.90;;;;;;5012519;28;20049;-48
2022/09/10 07:08:42;;;;;;;11.60;7.80;;;15.90;99.90;;;;;;5012439;28;20045;-49
2022/09/10 07:11:11;;;;;;;12.60;7.20;;;16.60;99.90;;;;;;5012601;28;20108;-46
2022/09/10 07:13:38;;;;;;;10.95;7.03;;;17.30;99.90;;;;;;5012513;28;20025;-50
2022/09/10 07:16:04;;;;;;;9.10;7.20;;;18.00;99.90;;;;;;5012287;28;20204;-51
2022/09/10 07:18:30;;;;;;;10.05;6.78;;;18.70;99.90;;;;;;5012321;28;20543;-50
2022/09/10 07:21:13;;;;;;;9.30;6.93;;;19.40;99.90;;;;;;5012408;28;20073;-45
2022/09/10 07:23:40;;;;;;;11.48;7.03;;;20.00;99.90;;;;;;5012269;28;20095;-48
2022/09/10 07:26:10;;;;;;;8.20;6.28;;;20.50;99.90;;;;;;5012097;28;20045;-49
2022/09/10 07:28:37;;;;;;;8.35;6.00;;;21.00;99.90;;;;;;5012080;28;20045;-52
2022/09/10 07:31:18;;;;;;;9.07;6.18;;;21.30;99.90;;;;;;5012191;28;20029;-53
2022/09/10 07:33:45;;;;;;;9.60;6.07;;;21.80;99.90;;;;;;5012062;28;20029;-49
2022/09/10 07:36:11;;;;;;;8.30;5.95;;;22.00;99.90;;;;;;5006967;28;20117;-50
2022/09/10 07:38:37;;;;;;;12.18;5.95;;;22.30;99.90;;;;;;5012125;28;20115;-50
2022/09/10 07:41:05;;;;;;;8.25;5.63;;;22.80;99.90;;;;;;5012175;28;20109;-50
2022/09/10 07:43:31;;;;;;;7.22;5.25;;;23.10;99.90;;;;;;5012136;28;20108;-51
2022/09/10 07:45:57;;;;;;;7.95;5.35;;;23.20;99.90;;;;;;5011942;28;20477;-55
2022/09/10 07:48:24;;;;;;;9.25;6.18;;;23.00;99.90;;;;;;5012180;28;20076;-54
2022/09/10 07:50:49;;;;;;;11.15;5.93;;;22.50;99.90;;;;;;5011859;28;20040;-44
2022/09/10 07:53:16;;;;;;;8.77;5.45;;;22.00;99.90;;;;;;5011856;28;20089;-50
2022/09/10 07:55:42;;;;;;;8.80;5.72;;;21.80;99.90;;;;;;5011839;28;20041;-52
2022/09/10 07:58:08;;;;;;;7.47;5.20;;;21.60;99.90;;;;;;5011737;28;20033;-51
2022/09/10 08:00:34;;;;;;;8.10;6.10;;;21.50;99.90;;;;;;5011680;28;20029;-48
2022/09/10 08:03:00;;;;;;;9.88;5.60;;;22.00;99.90;;;;;;5011403;28;20022;-52
2022/09/10 08:05:27;;;;;;;7.65;4.88;;;22.80;99.90;;;;;;5011254;28;20038;-46
2022/09/10 08:07:53;;;;;;;7.35;4.97;;;23.40;99.90;;;;;;5011476;28;20041;-48
2022/09/10 08:10:19;;;;;;;6.03;4.95;;;24.40;99.90;;;;;;5011602;28;20116;-47
2022/09/10 08:12:46;;;;;;;7.57;4.53;;;24.90;99.90;;;;;;5011463;28;20532;-46
2022/09/10 08:15:11;;;;;;;5.95;4.63;;;25.60;99.90;;;;;;5011030;28;20092;-44
2022/09/10 08:17:37;;;;;;;6.53;4.45;;;26.30;99.90;;;;;;5011513;28;20042;-46
2022/09/10 08:20:06;;;;;;;6.38;4.18;;;27.10;98.40;;;;;;5011352;28;20053;-50
2022/09/10 08:22:33;;;;;;;6.80;4.43;;;27.60;96.10;;;;;;5011505;28;20030;-48
2022/09/10 08:25:00;;;;;;;7.18;4.57;;;28.20;96.40;;;;;;5011210;28;20397;-47
2022/09/10 08:27:25;;;;;;;5.22;4.22;;;28.70;96.20;;;;;;5011336;28;20473;-46
2022/09/10 08:29:53;;;;;;;7.70;4.78;;;28.90;95.20;;;;;;5011234;28;20091;-49
2022/09/10 08:32:20;;;;;;;8.85;5.07;;;29.00;93.60;;;;;;5011043;28;20032;-49
2022/09/10 08:34:46;;;;;;;7.78;4.68;;;29.10;91.80;;;;;;5007594;28;20029;-51
2022/09/10 08:37:12;;;;;;;7.82;5.43;;;29.20;93.70;;;;;;5011333;28;20042;-45
2022/09/10 08:39:38;;;;;;;7.38;4.93;;;28.70;92.10;;;;;;5010992;28;20029;-44
2022/09/10 08:42:44;;;;;;;7.30;4.55;;;28.90;92.10;;;;;;5011200;28;20022;-45
2022/09/10 08:45:18;;;;;;;7.18;4.45;;;28.80;91.50;;;;;;4987680;28;20068;-50
2022/09/10 08:48:07;;;;;;;8.05;4.63;;;28.00;91.70;;;;;;5010952;28;20030;-49
2022/09/10 08:50:56;;;;;;;7.20;4.72;;;27.00;93.00;;;;;;5010980;28;20030;-45
2022/09/10 08:53:41;;;;;;;6.72;4.40;;;25.80;95.20;;;;;;4998082;28;20494;-47
2022/09/10 08:56:14;;;;;;;6.15;4.30;;;25.00;96.20;;;;;;5010874;28;20129;-52
2022/09/10 08:58:52;;;;;;;6.35;4.35;;;24.00;97.30;;;;;;5010941;28;20068;-47
2022/09/10 09:01:27;;;;;;;9.50;4.10;;;23.50;99.90;;;;;;5010891;28;20688;-52
2022/09/10 09:03:56;;;;;;;7.88;4.38;;;23.40;99.90;;;;;;5011097;28;20041;-45
2022/09/10 09:06:59;;;;;;;7.20;4.80;;;23.30;99.90;;;;;;5010570;28;20061;-50
2022/09/10 09:09:25;;;;;;;8.48;5.57;;;22.70;99.90;;;;;;4969376;28;20129;-49
2022/09/10 09:12:13;;;;;;;8.85;5.25;;;22.20;99.90;;;;;;4992030;28;20069;-50
2022/09/10 09:15:00;;;;;;;6.07;4.57;;;21.70;99.90;;;;;;5010852;28;20405;-44
2022/09/10 09:17:46;;;;;;;8.27;5.25;;;21.20;99.90;;;;;;5002361;28;20044;-46
2022/09/10 09:20:30;;;;;;;8.07;6.05;;;20.90;99.90;;;;;;5014367;28;20054;-47
2022/09/10 09:23:12;;;;;;;9.48;5.43;;;20.50;99.90;;;;;;5014696;28;20184;-48
2022/09/10 09:26:04;;;;;;;9.30;5.75;;;20.50;99.90;;;;;;5014409;28;20022;-46
2022/09/10 09:28:55;;;;;;;10.48;6.80;;;20.40;99.90;;;;;;5009419;28;20125;-44
2022/09/10 09:31:30;;;;;;;8.40;5.18;;;21.10;99.90;;;;;;5014355;28;20472;-46
2022/09/10 09:34:04;;;;;;;10.00;5.13;;;23.20;99.90;;;;;;5014138;28;20080;-49
2022/09/10 09:36:43;;;;;;;7.93;4.85;;;25.20;99.90;;;;;;5002233;28;20382;-51
2022/09/10 09:39:16;;;;;;;;;;;26.80;96.80;;;;;;5014542;28;20432;-48
2022/09/10 09:42:13;;;;;;;7.38;5.18;;;27.60;96.40;;;;;;5014200;28;19960;-50
2022/09/10 09:44:45;;;;;;;7.82;5.05;;;28.50;93.90;;;;;;5013989;28;20029;-53
2022/09/10 09:47:11;;;;;;;6.07;4.20;;;28.60;92.10;;;;;;5014347;28;20026;-48
2022/09/10 09:49:36;;;;;;;6.43;4.35;;;27.50;92.20;;;;;;5013976;28;20022;-45
2022/09/10 09:52:15;;;;;;;6.35;4.47;;;26.20;94.30;;;;;;5014094;28;20411;-48
2022/09/10 09:54:45;;;;;;;7.45;3.83;;;25.30;96.60;;;;;;5013860;28;20080;-47
2022/09/10 09:57:18;;;;;;;6.15;4.00;;;24.60;97.70;;;;;;5013895;28;20026;-48
2022/09/10 09:59:44;;;;;;;8.68;4.18;;;24.10;99.60;;;;;;5013967;28;20049;-47
2022/09/10 10:02:14;;;;;;;8.15;4.57;;;24.10;99.90;;;;;;5013900;28;20042;-49
2022/09/10 10:04:55;;;;;;;6.57;4.00;;;24.20;99.90;;;;;;5013501;28;20101;-48
2022/09/10 10:07:32;;;;;;;6.28;3.90;;;24.80;98.70;;;;;;5013877;28;20485;-49
2022/09/10 10:09:59;;;;;;;5.05;3.58;;;26.30;98.20;;;;;;5013734;28;20041;-48
2022/09/10 10:12:30;;;;;;;5.70;3.10;;;27.60;95.40;;;;;;5013680;28;20485;-54
2022/09/10 10:14:57;;;;;;;7.00;3.45;;;28.60;92.80;;;;;;5013365;28;20386;-50
2022/09/10 10:17:31;;;;;;;5.88;3.20;;;29.50;92.70;;;;;;5013455;28;20038;-46
2022/09/10 10:20:10;;;;;;;4.95;3.10;;;30.20;91.30;;;;;;5013433;28;20362;-47
2022/09/10 10:22:36;;;;;;;;;;;30.20;90.20;;;;;;5014086;28;20018;-46
2022/09/10 10:25:05;;;;;;;7.40;2.83;;;30.90;87.10;;;;;;5013442;28;19905;-51
2022/09/10 10:27:41;;;;;;;4.28;2.65;;;30.80;88.10;;;;;;5013037;28;20022;-48
2022/09/10 10:30:15;;;;;;;3.88;2.47;;;30.00;86.90;;;;;;5013339;28;20054;-45
2022/09/10 10:32:52;;;;;;;4.22;2.55;;;29.10;88.70;;;;;;5013182;28;20101;-48
2022/09/10 10:35:40;;;;;;;5.53;2.97;;;27.80;89.10;;;;;;5009737;28;20066;-50
2022/09/10 10:38:32;;;;;;;5.07;2.63;;;26.60;91.00;;;;;;5000521;28;20393;-51
2022/09/10 10:41:10;;;;;;;5.45;3.20;;;25.50;92.40;;;;;;4995319;28;20022;-46
2022/09/10 10:43:51;;;;;;;6.13;3.35;;;24.60;94.80;;;;;;4995732;28;20028;-45
2022/09/10 10:46:20;;;;;;;8.05;4.10;;;24.20;97.10;;;;;;5013122;28;20018;-45
2022/09/10 10:49:15;;;;;;;5.68;3.38;;;23.70;97.70;;;;;;5013118;28;20026;-50
2022/09/10 10:51:52;;;;;;;5.40;3.40;;;23.40;97.90;;;;;;4998071;28;20432;-45
2022/09/10 10:54:50;;;;;;;8.20;3.50;;;23.50;99.40;;;;;;5003886;28;20026;-51
2022/09/10 10:57:43;;;;;;;4.88;3.20;;;23.60;99.70;;;;;;5007973;28;20511;-46
2022/09/10 11:00:13;;;;;;;8.27;3.67;;;23.70;98.10;;;;;;5008347;28;20032;-48
2022/09/10 11:03:04;;;;;;;4.88;3.22;;;24.30;99.50;;;;;;5007577;28;20026;-49
2022/09/10 11:05:37;;;;;;;5.20;3.20;;;25.70;97.60;;;;;;5007681;28;20108;-50
2022/09/10 11:08:13;;;;;;;4.55;2.90;;;26.10;96.10;;;;;;5003627;28;20057;-53
2022/09/10 11:10:53;;;;;;;5.05;2.97;;;26.50;93.40;;;;;;5002516;28;20478;-51
2022/09/10 11:13:43;;;;;;;5.60;2.75;;;26.50;93.40;;;;;;5003236;28;20375;-50
2022/09/10 11:16:35;;;;;;;6.18;3.08;;;26.80;94.80;;;;;;4994130;28;20034;-50
2022/09/10 11:19:12;;;;;;;5.32;2.50;;;27.40;95.10;;;;;;4991290;28;20022;-50
2022/09/10 11:21:52;;;;;;;4.57;2.17;;;27.30;91.60;;;;;;4991437;28;20553;-55
2022/09/10 11:24:32;;;;;;;5.80;2.90;;;26.70;92.00;;;;;;4992850;28;20034;-54
2022/09/10 11:27:17;;;;;;;7.95;2.75;;;25.90;92.50;;;;;;4993759;28;20122;-50
2022/09/10 11:29:54;;;;;;;4.85;2.45;;;25.80;93.80;;;;;;4991967;28;20045;-51
2022/09/10 11:32:30;;;;;;;4.78;2.70;;;25.70;92.90;;;;;;5000157;28;20080;-46
2022/09/10 11:35:20;;;;;;;5.25;2.63;;;25.70;94.90;;;;;;4993533;28;20470;-48
2022/09/10 11:38:06;;;;;;;5.13;2.50;;;25.20;93.90;;;;;;5008344;28;20061;-46
2022/09/10 11:40:50;;;;;;;6.18;2.88;;;24.50;94.30;;;;;;5008524;28;20057;-46
2022/09/10 11:43:36;;;;;;;6.85;3.22;;;24.20;97.00;;;;;;4997872;28;20640;-47
2022/09/10 11:46:09;;;;;;;6.40;3.20;;;23.90;95.70;;;;;;5004129;28;20164;-45
2022/09/10 11:49:02;;;;;;;6.35;3.10;;;23.60;95.90;;;;;;4992535;28;20034;-45
2022/09/10 11:51:32;;;;;;;5.82;2.70;;;23.70;97.50;;;;;;5005328;28;20489;-48
2022/09/10 11:54:01;;;;;;;6.65;3.00;;;23.90;97.70;;;;;;5005644;28;20045;-49
2022/09/10 11:56:30;;;;;;;5.65;2.50;;;23.80;97.90;;;;;;5003816;28;20042;-49
2022/09/10 11:59:36;;;;;;;9.27;2.20;;;24.00;97.10;;;;;;5001694;28;20022;-49
2022/09/10 12:02:05;;;;;;;6.45;2.15;;;24.10;95.90;;;;;;4931129;29;20043;-47
2022/09/10 12:04:45;;;;;;;5.57;2.42;;;24.20;96.60;;;;;;4930422;29;20034;-46
2022/09/10 12:07:41;;;;;;;7.07;2.15;;;24.20;96.30;;;;;;4969300;28;20030;-47
2022/09/10 12:10:38;;;;;;;4.25;1.90;;;24.40;96.30;;;;;;4994162;28;20371;-50
2022/09/10 12:13:16;;;;;;;3.70;1.75;;;25.40;97.10;;;;;;4985801;28;20120;-48
2022/09/10 12:15:54;;;;;;;4.55;2.00;;;25.70;93.70;;;;;;4991104;28;20121;-46
2022/09/10 12:18:27;;;;;;;5.03;2.10;;;25.60;94.60;;;;;;4990866;28;20359;-46
2022/09/10 12:21:01;;;;;;;2.83;1.75;;;25.40;93.00;;;;;;4991151;28;20540;-48
2022/09/10 12:23:34;;;;;;;3.78;2.33;;;25.80;92.90;;;;;;4992680;28;20072;-46
2022/09/10 12:26:04;;;;;;;6.28;2.47;;;26.60;91.80;;;;;;4989498;28;20576;-54
2022/09/10 12:28:42;;;;;;;3.58;1.90;;;27.00;93.70;;;;;;4989384;28;20018;-47
2022/09/10 12:31:16;;;;;;;4.47;2.00;;;27.20;90.50;;;;;;4989486;28;20109;-46
2022/09/10 12:33:42;;;;;;;3.63;1.92;;;27.20;92.60;;;;;;4990629;28;20030;-50
2022/09/10 12:36:31;;;;;;;2.90;1.83;;;27.40;94.40;;;;;;4994513;28;20364;-52
2022/09/10 12:39:19;;;;;;;2.95;2.08;;;26.90;90.40;;;;;;4986928;28;20042;-46
2022/09/10 12:41:44;;;;;;;5.20;2.10;;;25.80;92.80;;;;;;4991260;28;20038;-49
2022/09/10 12:44:34;;;;;;;6.68;2.60;;;25.40;96.50;;;;;;4996116;28;20010;-49
2022/09/10 12:47:15;;;;;;;4.30;2.20;;;25.70;96.30;;;;;;4991324;28;20117;-49
2022/09/10 12:49:46;;;;;;;3.65;2.08;;;26.00;95.20;;;;;;4991850;28;20154;-46
2022/09/10 12:52:21;;;;;;;3.80;1.67;;;26.30;94.60;;;;;;4995304;28;20029;-49
2022/09/10 12:55:03;;;;;;;4.60;2.13;;;26.50;94.90;;;;;;4995192;28;20042;-47
2022/09/10 12:57:32;;;;;;;3.53;2.17;;;26.50;93.50;;;;;;4995263;28;20101;-45
2022/09/10 13:00:26;;;;;;;6.15;2.10;;;26.50;93.30;;;;;;4995382;28;20027;-47
2022/09/10 13:03:07;;;;;;;5.20;2.20;;;26.50;94.10;;;;;;4992856;28;20030;-49
2022/09/10 13:05:44;;;;;;;5.57;2.53;;;26.50;94.80;;;;;;5000275;28;20088;-54
2022/09/10 13:08:14;;;;;;;5.28;2.33;;;26.50;92.80;;;;;;4995057;28;20236;-51
2022/09/10 13:10:44;;;;;;;6.10;1.90;;;26.50;92.50;;;;;;5006648;28;20054;-46